Time;durP1;ratioP1;P1;durP2;ratioP2;P2;SDS_P1;SDS_P2;PMS_P1;PMS_P2;Temp;Humidity;BMP_temperature;BMP_pressure;BME280_temperature;BME280_humidity;BME280_pressure;Samples;Min_cycle;Max_cycle;Signal;HPM_P1;HPM_P2
2023/01/31 00:00:07;;;;;;;18.37;10.17;;;2.50;95.30;;;2.15;59.65;94499.06;5018549;28;20482;-56
2023/01/31 00:02:34;;;;;;;19.50;10.27;;;2.50;95.50;;;2.14;59.21;94508.59;5014258;28;20461;-56
2023/01/31 00:05:02;;;;;;;19.33;10.63;;;2.50;95.20;;;2.12;58.84;94504.44;5018239;28;20576;-57
2023/01/31 00:07:29;;;;;;;21.10;11.13;;;2.50;95.40;;;2.11;59.81;94508.81;5018240;28;20454;-55
2023/01/31 00:09:58;;;;;;;20.87;11.47;;;2.40;95.40;;;2.10;59.81;94495.94;5017459;28;20512;-56
2023/01/31 00:12:25;;;;;;;22.90;10.53;;;2.40;95.50;;;2.08;59.06;94498.63;5015344;28;20458;-56
2023/01/31 00:14:52;;;;;;;23.17;11.20;;;2.40;95.50;;;2.07;59.42;94502.13;5016951;28;20962;-57
2023/01/31 00:17:20;;;;;;;20.03;10.63;;;2.40;95.30;;;2.06;59.58;94500.50;5015216;28;20834;-56
2023/01/31 00:19:47;;;;;;;21.10;10.53;;;2.40;95.50;;;2.07;59.75;94506.50;5016879;28;20982;-56
2023/01/31 00:22:14;;;;;;;19.33;11.20;;;2.40;95.80;;;2.09;60.01;94502.91;5017469;28;20485;-57
2023/01/31 00:24:41;;;;;;;19.23;10.20;;;2.40;95.80;;;2.08;59.56;94503.00;5015286;28;20554;-55
2023/01/31 00:27:10;;;;;;;20.90;11.80;;;2.40;95.60;;;2.08;59.24;94497.81;5019524;28;20484;-57
2023/01/31 00:29:37;;;;;;;20.30;10.57;;;2.50;95.40;;;2.07;60.50;94498.72;5015469;28;20450;-57
2023/01/31 00:32:05;;;;;;;22.33;10.43;;;2.40;95.60;;;2.10;59.83;94494.16;5022185;28;20472;-56
2023/01/31 00:34:32;;;;;;;19.97;10.40;;;2.40;95.80;;;2.12;58.93;94496.66;5016048;28;20457;-55
2023/01/31 00:36:59;;;;;;;20.47;11.33;;;2.40;95.60;;;2.12;59.42;94494.91;5018041;28;20476;-56
2023/01/31 00:39:27;;;;;;;27.40;11.70;;;2.40;95.60;;;2.16;59.20;94498.13;5014490;28;20445;-57
2023/01/31 00:41:54;;;;;;;20.47;11.20;;;2.50;95.70;;;2.15;59.16;94494.72;5014746;28;20472;-57
2023/01/31 00:44:23;;;;;;;18.97;11.30;;;2.50;95.50;;;2.15;58.99;94499.91;5015519;28;20508;-55
2023/01/31 00:46:50;;;;;;;21.30;11.00;;;2.50;95.60;;;2.15;59.54;94497.31;5014516;28;20531;-57
2023/01/31 00:49:17;;;;;;;18.87;10.50;;;2.50;95.70;;;2.14;59.86;94490.44;5015644;28;20984;-56
2023/01/31 00:51:44;;;;;;;23.53;10.60;;;2.50;95.60;;;2.14;59.11;94489.63;5016774;28;20488;-57
2023/01/31 00:54:12;;;;;;;17.80;9.83;;;2.50;95.50;;;2.11;59.18;94489.81;5018806;28;20464;-56
2023/01/31 00:56:39;;;;;;;19.30;9.93;;;2.50;95.50;;;2.07;59.56;94491.75;5016071;28;20880;-55
2023/01/31 00:59:07;;;;;;;18.43;10.87;;;2.40;95.60;;;2.06;60.05;94490.13;5016885;28;20456;-57
2023/01/31 01:01:36;;;;;;;20.87;10.53;;;2.40;95.80;;;2.07;60.55;94496.94;5012293;28;20485;-57
2023/01/31 01:04:04;;;;;;;18.20;9.87;;;2.40;95.80;;;2.10;60.60;94517.50;5016722;28;20517;-56
2023/01/31 01:06:32;;;;;;;16.53;9.83;;;2.40;95.90;;;2.11;60.15;94511.41;5018144;28;20993;-56
2023/01/31 01:08:59;;;;;;;16.13;10.27;;;2.50;95.90;;;2.12;59.38;94502.69;5017735;28;20453;-55
2023/01/31 01:11:29;;;;;;;17.70;10.13;;;2.50;95.90;;;2.14;59.82;94512.97;5015990;28;20480;-55
2023/01/31 01:13:57;;;;;;;22.13;10.27;;;2.50;95.90;;;2.15;59.71;94502.50;5016885;28;20489;-56
2023/01/31 01:16:26;;;;;;;20.13;11.93;;;2.50;95.90;;;2.18;60.00;94514.44;5015979;28;20473;-54
2023/01/31 01:18:55;;;;;;;16.33;10.40;;;2.50;95.90;;;2.21;59.84;94493.47;5016233;28;20486;-57
2023/01/31 01:21:24;;;;;;;24.20;11.83;;;2.50;95.90;;;2.23;59.93;94495.97;5017482;28;20553;-57
2023/01/31 01:23:51;;;;;;;23.23;11.20;;;2.50;95.60;;;2.23;59.32;94498.56;5014674;28;20482;-57
2023/01/31 01:26:21;;;;;;;25.77;11.33;;;2.60;95.60;;;2.23;60.05;94490.78;5017474;28;20900;-56
2023/01/31 01:28:48;;;;;;;25.33;11.47;;;2.60;95.60;;;2.23;59.05;94490.78;5013129;28;20452;-58
2023/01/31 01:31:16;;;;;;;24.93;12.20;;;2.60;95.60;;;2.24;59.07;94489.84;5013225;28;20838;-58
2023/01/31 01:33:43;;;;;;;23.53;12.67;;;2.60;95.60;;;2.25;59.21;94489.75;5013914;28;20540;-55
2023/01/31 01:36:16;;;;;;;25.67;13.33;;;2.60;95.70;;;2.27;59.40;94487.06;5016331;28;20974;-57
2023/01/31 01:38:43;;;;;;;27.07;13.07;;;2.60;95.70;;;2.29;59.14;94499.03;5011583;28;20529;-56
2023/01/31 01:41:11;;;;;;;24.77;12.20;;;2.60;95.60;;;2.29;59.29;94487.78;5009406;28;20460;-56
2023/01/31 01:43:45;;;;;;;28.03;13.50;;;2.60;95.40;;;2.29;58.44;94496.44;5005504;28;20449;-57
2023/01/31 01:46:16;;;;;;;22.93;12.00;;;2.60;95.10;;;2.30;59.14;94505.84;5012529;28;20487;-56
2023/01/31 01:48:44;;;;;;;24.57;13.67;;;2.60;94.90;;;2.31;58.55;94504.13;5015990;28;20452;-56
2023/01/31 01:51:12;;;;;;;21.40;12.13;;;2.60;94.70;;;2.33;59.00;94504.84;5014783;28;20473;-54
2023/01/31 01:53:41;;;;;;;22.13;11.80;;;2.60;94.70;;;2.35;57.47;94500.38;5018707;28;20473;-56
2023/01/31 01:56:11;;;;;;;24.70;13.67;;;2.70;94.40;;;2.32;58.08;94501.41;5016544;28;20468;-55
2023/01/31 01:58:41;;;;;;;19.07;10.87;;;2.70;94.40;;;2.36;58.28;94493.44;5016795;28;20460;-55
2023/01/31 02:01:09;;;;;;;23.70;10.93;;;2.70;94.20;;;2.38;57.98;94502.75;5015145;28;20474;-57
2023/01/31 02:03:36;;;;;;;29.97;12.10;;;2.70;94.30;;;2.41;57.69;94499.97;5016143;28;20850;-57
2023/01/31 02:06:05;;;;;;;21.50;10.90;;;2.70;94.40;;;2.44;58.16;94504.97;5018134;28;20500;-57
2023/01/31 02:08:36;;;;;;;22.93;11.77;;;2.70;94.20;;;2.46;57.77;94513.50;5015504;28;20454;-56
2023/01/31 02:11:05;;;;;;;23.60;10.93;;;2.80;94.30;;;2.47;57.86;94519.50;5012989;28;20552;-57
2023/01/31 02:13:33;;;;;;;23.87;12.73;;;2.80;94.10;;;2.49;57.49;94510.72;5016286;28;20519;-57
2023/01/31 02:16:00;;;;;;;21.43;11.60;;;2.80;94.00;;;2.50;56.77;94508.94;5017612;28;20472;-57
2023/01/31 02:18:27;;;;;;;13.90;9.90;;;2.80;93.70;;;2.50;57.00;94499.38;5017397;28;20456;-58
2023/01/31 02:21:52;;;;;;;17.67;10.10;;;2.80;93.60;;;2.51;57.26;94506.25;5020911;28;20473;-56
2023/01/31 02:24:56;;;;;;;18.73;9.97;;;2.80;93.40;;;2.51;57.30;94492.44;5017846;28;21208;-55
2023/01/31 02:27:48;;;;;;;23.13;10.53;;;2.80;93.60;;;2.51;56.23;94500.22;5014001;28;20456;-56
2023/01/31 02:30:48;;;;;;;17.23;9.93;;;2.80;93.30;;;2.53;56.47;94502.72;5018973;28;20472;-57
2023/01/31 02:33:21;;;;;;;15.90;8.90;;;2.80;93.50;;;2.53;57.56;94511.34;5014213;28;20448;-55
2023/01/31 02:35:58;;;;;;;12.87;9.30;;;2.90;93.50;;;2.54;56.92;94514.75;5014704;28;20466;-57
2023/01/31 02:38:35;;;;;;;15.47;9.43;;;2.90;93.20;;;2.53;56.26;94505.31;5016085;28;20450;-57
2023/01/31 02:41:10;;;;;;;20.10;10.67;;;2.80;93.20;;;2.55;56.39;94512.06;5016696;28;21012;-57
2023/01/31 02:46:26;;;;;;;20.20;9.43;;;2.90;93.50;;;2.57;56.75;94501.56;5018856;28;20522;-57
2023/01/31 02:48:57;;;;;;;16.23;10.00;;;2.90;93.30;;;2.56;57.34;94515.50;5013947;28;20444;-56
2023/01/31 02:51:27;;;;;;;16.00;9.23;;;2.90;93.40;;;2.58;57.03;94531.81;5021937;28;20538;-55
2023/01/31 02:54:00;;;;;;;14.00;8.57;;;2.90;93.10;;;2.58;56.93;94532.63;5012620;28;20874;-55
2023/01/31 02:56:29;;;;;;;18.30;9.90;;;2.90;93.40;;;2.58;56.83;94543.00;5019279;28;20475;-57
2023/01/31 02:58:59;;;;;;;16.80;9.57;;;2.90;93.30;;;2.57;56.55;94550.91;5020330;28;20543;-57
2023/01/31 03:01:30;;;;;;;16.30;8.50;;;2.90;92.90;;;2.54;56.56;94551.09;5015978;28;20484;-57
2023/01/31 03:04:04;;;;;;;16.07;9.57;;;2.90;93.20;;;2.53;56.98;94554.63;5022714;28;20445;-54
2023/01/31 03:06:58;;;;;;;17.70;10.20;;;2.90;93.20;;;2.50;57.66;94560.84;5014709;28;20493;-56
2023/01/31 03:09:35;;;;;;;13.40;8.67;;;2.80;93.60;;;2.49;57.89;94564.38;5017535;28;20461;-59
2023/01/31 03:12:23;;;;;;;17.37;9.27;;;2.80;93.80;;;2.47;57.83;94561.88;5020315;28;20555;-56
2023/01/31 03:14:59;;;;;;;12.10;7.93;;;2.80;94.30;;;2.46;57.77;94568.00;5017151;28;20967;-57
2023/01/31 03:17:30;;;;;;;17.20;8.90;;;2.80;93.80;;;2.40;57.00;94571.00;5017954;28;20514;-58
2023/01/31 03:20:05;;;;;;;19.43;8.70;;;2.80;93.60;;;2.39;57.98;94569.31;5015856;28;20460;-57
2023/01/31 03:22:35;;;;;;;12.93;8.13;;;2.70;93.60;;;2.36;57.01;94574.72;5016018;28;20505;-56
2023/01/31 03:25:04;;;;;;;14.00;7.33;;;2.70;93.50;;;2.34;57.20;94586.97;5018050;28;20484;-56
2023/01/31 03:27:32;;;;;;;17.40;8.67;;;2.70;93.50;;;2.33;57.82;94593.06;5013971;28;20450;-57
2023/01/31 03:30:02;;;;;;;10.20;6.80;;;2.70;93.70;;;2.33;57.64;94582.69;5022174;28;20548;-56
2023/01/31 03:32:32;;;;;;;19.23;8.23;;;2.70;94.00;;;2.33;57.28;94590.47;5017979;28;20449;-56
2023/01/31 03:35:01;;;;;;;13.37;8.10;;;2.70;93.80;;;2.33;57.71;94587.88;5019034;28;20450;-56
2023/01/31 03:37:34;;;;;;;12.73;8.03;;;2.70;93.90;;;2.32;57.46;94588.78;5016929;28;20953;-56
2023/01/31 03:40:04;;;;;;;12.23;7.40;;;2.60;93.80;;;2.32;56.76;94588.78;5018626;28;20441;-56
2023/01/31 03:42:37;;;;;;;18.23;9.30;;;2.60;93.70;;;2.29;58.12;94589.00;5011823;28;20445;-57
2023/01/31 03:45:06;;;;;;;13.27;8.43;;;2.60;94.00;;;2.27;57.76;94602.06;5017366;28;20547;-57
2023/01/31 03:47:36;;;;;;;16.07;8.37;;;2.60;94.40;;;2.26;59.19;94594.38;5016032;28;20462;-57
2023/01/31 03:50:07;;;;;;;15.40;9.13;;;2.60;94.50;;;2.25;58.17;94597.91;5018701;28;20472;-55
2023/01/31 03:52:37;;;;;;;13.77;8.50;;;2.60;94.70;;;2.23;58.26;94602.34;5015568;28;21043;-56
2023/01/31 03:55:08;;;;;;;14.37;9.10;;;2.60;94.80;;;2.23;59.02;94604.94;5017543;28;20444;-54
2023/01/31 03:57:39;;;;;;;15.87;8.77;;;2.60;95.00;;;2.22;58.67;94611.09;5014803;28;20449;-58
2023/01/31 04:00:09;;;;;;;16.80;9.47;;;2.60;95.10;;;2.22;59.42;94618.88;5017100;28;20461;-55
2023/01/31 04:02:37;;;;;;;23.60;13.40;;;2.60;95.20;;;2.23;59.26;94613.59;5018236;28;20541;-56
2023/01/31 04:05:09;;;;;;;38.10;21.67;;;2.60;95.40;;;2.23;59.28;94607.53;5016749;28;20567;-57
2023/01/31 04:07:37;;;;;;;33.70;19.37;;;2.60;95.40;;;2.21;59.07;94612.00;5012400;28;20458;-55
2023/01/31 04:10:05;;;;;;;19.20;12.27;;;2.60;95.50;;;2.25;59.37;94623.88;5010945;28;20449;-56
2023/01/31 04:12:35;;;;;;;18.37;10.37;;;2.60;95.60;;;2.28;60.27;94629.69;5016226;28;20459;-55
2023/01/31 04:15:03;;;;;;;19.67;10.43;;;2.60;95.50;;;2.31;60.01;94636.47;5012485;28;20460;-57
2023/01/31 04:17:30;;;;;;;17.80;8.80;;;2.60;95.50;;;2.31;59.98;94641.66;5020235;28;20460;-56
2023/01/31 04:19:57;;;;;;;14.00;8.20;;;2.60;95.50;;;2.32;59.58;94632.91;5015399;28;20454;-56
2023/01/31 04:22:26;;;;;;;17.60;9.80;;;2.60;95.60;;;2.36;59.68;94642.19;5020130;28;20464;-55
2023/01/31 04:24:53;;;;;;;12.10;7.80;;;2.70;95.70;;;2.39;60.35;94635.97;5016896;28;20486;-55
2023/01/31 04:27:21;;;;;;;17.53;9.27;;;2.70;95.80;;;2.40;60.25;94638.47;5010873;28;20537;-57
2023/01/31 04:29:48;;;;;;;16.30;8.90;;;2.70;95.70;;;2.39;59.30;94649.78;5017538;28;20449;-54
2023/01/31 04:32:15;;;;;;;13.03;8.03;;;2.70;95.80;;;2.37;59.30;94649.06;5014922;28;20491;-57
2023/01/31 04:34:42;;;;;;;18.77;10.77;;;2.70;95.90;;;2.35;60.61;94645.69;5017619;28;20941;-58
2023/01/31 04:37:10;;;;;;;15.33;9.20;;;2.70;96.00;;;2.35;60.21;94637.91;5015894;28;20499;-56
2023/01/31 04:39:38;;;;;;;18.53;10.30;;;2.70;96.20;;;2.35;60.76;94643.09;5014611;28;20461;-57
2023/01/31 04:42:06;;;;;;;12.23;8.17;;;2.70;96.20;;;2.34;60.17;94638.88;5018250;28;20483;-57
2023/01/31 04:44:33;;;;;;;21.80;11.37;;;2.70;96.40;;;2.34;60.23;94646.66;5015577;28;20445;-57
2023/01/31 04:47:00;;;;;;;20.47;10.40;;;2.70;96.30;;;2.32;61.00;94638.09;5013357;28;20496;-57
2023/01/31 04:49:27;;;;;;;20.73;10.57;;;2.70;96.40;;;2.29;61.83;94649.53;5016248;28;20564;-55
2023/01/31 04:51:55;;;;;;;25.10;10.60;;;2.60;97.00;;;2.30;60.84;94660.72;5015217;28;20477;-56
2023/01/31 04:54:22;;;;;;;17.73;9.80;;;2.60;97.00;;;2.30;61.97;94660.72;5017849;28;20440;-56
2023/01/31 04:56:50;;;;;;;18.47;11.07;;;2.60;97.00;;;2.30;62.87;94658.13;5011781;28;20512;-58
2023/01/31 04:59:18;;;;;;;19.27;11.60;;;2.60;97.90;;;2.31;62.78;94649.44;5014217;28;20913;-57
2023/01/31 05:01:45;;;;;;;17.43;10.53;;;2.60;97.90;;;2.31;62.77;94645.06;5015279;28;20482;-56
2023/01/31 05:04:12;;;;;;;23.23;10.77;;;2.60;98.30;;;2.33;62.40;94658.78;5017658;28;20454;-57
2023/01/31 05:06:39;;;;;;;21.20;11.23;;;2.70;98.30;;;2.37;61.97;94653.38;5016548;28;20579;-56
2023/01/31 05:09:07;;;;;;;18.43;10.07;;;2.70;98.00;;;2.37;62.26;94643.88;5014079;28;20457;-57
2023/01/31 05:11:34;;;;;;;19.87;11.83;;;2.70;97.70;;;2.41;64.24;94642.72;5015771;28;20847;-57
2023/01/31 05:14:03;;;;;;;23.77;10.87;;;2.70;99.50;;;2.47;64.63;94654.50;5001984;28;20493;-54
2023/01/31 05:16:30;;;;;;;18.63;11.27;;;2.70;99.90;;;2.55;62.75;94670.41;5016590;28;20469;-57
2023/01/31 05:18:57;;;;;;;16.27;10.27;;;2.80;99.20;;;2.62;62.81;94671.69;5009242;28;20468;-57
2023/01/31 05:21:24;;;;;;;20.93;10.43;;;2.90;99.00;;;2.68;62.99;94678.25;5016320;28;20479;-58
2023/01/31 05:23:52;;;;;;;19.77;11.27;;;2.90;98.50;;;2.73;65.32;94667.56;5009829;28;20457;-55
2023/01/31 05:26:19;;;;;;;16.43;9.67;;;3.00;99.90;;;2.83;64.77;94660.88;5014589;28;20509;-58
2023/01/31 05:28:46;;;;;;;13.97;8.27;;;3.10;99.90;;;2.94;64.08;94662.78;5016003;28;20989;-57
2023/01/31 05:31:15;;;;;;;13.13;8.30;;;3.20;99.80;;;3.00;62.07;94670.19;5004587;28;20492;-56
2023/01/31 05:33:43;;;;;;;34.73;12.80;;;3.20;98.60;;;3.01;62.11;94658.88;5016038;28;20464;-57
2023/01/31 05:36:10;;;;;;;21.07;11.50;;;3.30;98.80;;;3.03;62.52;94662.19;4994122;28;20475;-57
2023/01/31 05:38:37;;;;;;;19.57;10.30;;;3.30;98.50;;;3.02;62.48;94660.50;5015835;28;20909;-57
2023/01/31 05:41:05;;;;;;;17.20;10.33;;;3.30;98.30;;;3.00;61.57;94658.00;5011416;28;20470;-58
2023/01/31 05:43:32;;;;;;;15.10;10.00;;;3.30;98.00;;;3.00;61.39;94672.78;5005358;28;20886;-58
2023/01/31 05:45:59;;;;;;;15.37;8.40;;;3.30;97.90;;;2.99;61.52;94665.91;5010660;28;20599;-57
2023/01/31 05:48:28;;;;;;;14.53;8.67;;;3.30;97.80;;;2.98;61.32;94674.66;5016156;28;20459;-56
2023/01/31 05:50:55;;;;;;;14.83;7.90;;;3.30;97.80;;;2.97;61.29;94672.97;5017181;28;20487;-56
2023/01/31 05:53:23;;;;;;;14.90;8.20;;;3.30;97.70;;;2.94;61.39;94675.78;5018928;28;20461;-56
2023/01/31 05:55:51;;;;;;;17.47;8.50;;;3.20;97.60;;;2.91;61.30;94683.75;5021657;28;20483;-56
2023/01/31 05:58:18;;;;;;;18.50;9.10;;;3.20;97.60;;;2.90;61.82;94682.94;5020012;28;20875;-57
2023/01/31 06:00:45;;;;;;;15.73;8.97;;;3.20;97.70;;;2.90;61.56;94679.50;5020969;28;21429;-56
2023/01/31 06:03:13;;;;;;;16.07;9.27;;;3.20;97.80;;;2.89;61.87;94675.25;5019127;28;20456;-57
2023/01/31 06:05:41;;;;;;;16.20;10.00;;;3.20;97.80;;;2.89;61.56;94667.44;5021268;28;20500;-56
2023/01/31 06:08:09;;;;;;;15.73;9.50;;;3.20;97.80;;;2.87;61.85;94673.56;5018227;28;20468;-58
2023/01/31 06:10:37;;;;;;;14.17;8.87;;;3.20;97.80;;;2.87;61.97;94681.34;5018129;28;20803;-57
2023/01/31 06:13:06;;;;;;;14.60;8.90;;;3.20;97.80;;;2.87;61.75;94683.94;5016647;28;20441;-55
2023/01/31 06:15:33;;;;;;;21.03;14.17;;;3.20;97.90;;;2.89;61.78;94683.03;5020239;28;20996;-58
2023/01/31 06:18:00;;;;;;;13.40;9.40;;;3.20;97.90;;;2.89;61.47;94677.84;5019095;28;20518;-58
2023/01/31 06:20:27;;;;;;;18.43;10.23;;;3.20;97.90;;;2.87;61.31;94683.94;5018015;28;20468;-56
2023/01/31 06:22:56;;;;;;;22.03;10.27;;;3.20;98.00;;;2.87;62.30;94686.56;5017513;28;21071;-56
2023/01/31 06:25:23;;;;;;;13.90;8.90;;;3.20;98.10;;;2.86;62.06;94692.66;5017532;28;20468;-54
2023/01/31 06:27:51;;;;;;;16.57;8.97;;;3.20;98.00;;;2.84;61.94;94702.34;5019232;28;20464;-58
2023/01/31 06:30:18;;;;;;;13.93;9.13;;;3.20;98.10;;;2.86;61.71;94697.88;5015815;28;21039;-56
2023/01/31 06:32:45;;;;;;;13.07;8.97;;;3.20;98.20;;;2.86;62.35;94700.47;5019821;28;20476;-56
2023/01/31 06:35:13;;;;;;;17.80;9.33;;;3.20;98.20;;;2.89;62.71;94707.22;5018031;28;20577;-56
2023/01/31 06:37:40;;;;;;;18.37;9.27;;;3.20;98.20;;;2.91;61.90;94694.16;5016980;28;20510;-56
2023/01/31 06:40:11;;;;;;;17.83;9.90;;;3.20;98.30;;;2.95;62.48;94695.63;5012514;28;20450;-58
2023/01/31 06:42:38;;;;;;;15.40;9.57;;;3.30;98.30;;;2.97;62.31;94701.56;5016578;28;20452;-57
2023/01/31 06:45:07;;;;;;;16.83;8.77;;;3.20;98.20;;;2.98;62.38;94693.66;5015206;28;20450;-57
2023/01/31 06:47:34;;;;;;;16.00;8.40;;;3.30;98.10;;;2.99;62.37;94691.88;5016416;28;20495;-56
2023/01/31 06:50:01;;;;;;;19.30;9.97;;;3.30;98.30;;;3.01;61.88;94700.44;5012802;28;20449;-55
2023/01/31 06:52:28;;;;;;;14.40;8.80;;;3.30;98.20;;;3.02;62.35;94694.28;5013097;28;20461;-57
2023/01/31 06:54:56;;;;;;;12.47;8.90;;;3.30;98.50;;;3.05;61.79;94696.69;5012433;28;20442;-56
2023/01/31 06:57:24;;;;;;;16.87;7.90;;;3.30;98.20;;;3.08;62.19;94688.69;5016524;28;21031;-56
2023/01/31 06:59:51;;;;;;;16.33;9.50;;;3.40;98.20;;;3.13;61.46;94691.00;5013092;28;20520;-57
2023/01/31 07:02:19;;;;;;;14.80;9.30;;;3.40;98.00;;;3.15;62.16;94700.38;5015549;28;20469;-57
2023/01/31 07:04:46;;;;;;;13.03;8.30;;;3.40;97.90;;;3.20;61.94;94694.88;5013269;28;20454;-58
2023/01/31 07:07:13;;;;;;;13.60;8.90;;;3.50;97.90;;;3.25;61.22;94702.38;5013760;28;20967;-59
2023/01/31 07:09:41;;;;;;;16.50;8.80;;;3.50;98.00;;;3.29;61.38;94698.66;5011876;28;20568;-57
2023/01/31 07:12:08;;;;;;;14.50;7.47;;;3.60;98.00;;;3.33;62.44;94700.97;5015936;28;20476;-57
2023/01/31 07:14:37;;;;;;;12.63;7.33;;;3.60;98.50;;;3.39;62.31;94710.09;5014231;28;20461;-56
2023/01/31 07:17:04;;;;;;;12.47;8.00;;;3.70;98.40;;;3.43;61.78;94698.56;5013782;28;20508;-58
2023/01/31 07:19:32;;;;;;;16.47;8.60;;;3.70;98.00;;;3.47;61.27;94705.25;5014180;28;20481;-56
2023/01/31 07:21:59;;;;;;;15.53;8.83;;;3.70;97.90;;;3.47;61.84;94709.59;5018528;28;20483;-57
2023/01/31 07:24:26;;;;;;;14.90;8.63;;;3.80;97.90;;;3.45;61.21;94720.09;5013977;28;20465;-55
2023/01/31 07:26:53;;;;;;;12.47;7.40;;;3.80;97.80;;;3.43;61.66;94706.38;5017150;28;20496;-59
2023/01/31 07:29:21;;;;;;;13.70;9.07;;;3.70;97.80;;;3.44;61.71;94708.06;5014274;28;20445;-55
2023/01/31 07:31:49;;;;;;;16.10;8.63;;;3.70;97.80;;;3.42;61.56;94715.09;5018674;28;20895;-55
2023/01/31 07:34:17;;;;;;;14.00;9.20;;;3.70;97.90;;;3.41;62.06;94713.44;5015774;28;20518;-56
2023/01/31 07:36:45;;;;;;;14.40;8.73;;;3.70;98.10;;;3.42;62.16;94712.50;5018616;28;20473;-58
2023/01/31 07:39:12;;;;;;;11.17;6.90;;;3.70;98.00;;;3.44;61.55;94721.06;5016962;28;20468;-56
2023/01/31 07:41:39;;;;;;;11.63;7.70;;;3.70;98.00;;;3.45;61.66;94725.28;5013352;28;21080;-57
2023/01/31 07:44:07;;;;;;;15.20;8.70;;;3.80;98.20;;;3.47;61.71;94723.44;5018108;28;20691;-59
2023/01/31 07:46:35;;;;;;;13.43;8.07;;;3.80;98.20;;;3.49;61.92;94734.56;5017677;28;20493;-58
2023/01/31 07:49:03;;;;;;;19.83;8.80;;;3.80;98.10;;;3.50;61.61;94727.59;5019156;28;20978;-58
2023/01/31 07:51:30;;;;;;;9.00;6.87;;;3.80;98.20;;;3.51;61.42;94722.28;5013995;28;20524;-58
2023/01/31 07:53:58;;;;;;;11.37;7.43;;;3.80;98.10;;;3.52;61.78;94716.16;5011506;28;20462;-57
2023/01/31 07:56:25;;;;;;;18.93;9.53;;;3.80;98.20;;;3.54;61.79;94724.69;5012089;28;20481;-57
2023/01/31 07:58:52;;;;;;;13.00;8.00;;;3.80;98.30;;;3.55;62.38;94731.56;5010949;28;20458;-57
2023/01/31 08:04:08;;;;;;;13.37;9.30;;;3.80;98.30;;;3.56;61.79;94728.06;5010603;28;20472;-56
2023/01/31 08:06:36;;;;;;;15.07;8.40;;;3.90;98.30;;;3.61;62.20;94724.28;5011765;28;20494;-56
2023/01/31 08:09:03;;;;;;;11.40;7.77;;;3.90;98.50;;;3.65;62.16;94731.78;5013895;28;20458;-59
2023/01/31 08:11:31;;;;;;;14.47;8.57;;;3.90;98.40;;;3.69;61.97;94727.25;5013450;28;20531;-56
2023/01/31 08:13:58;;;;;;;10.23;7.63;;;4.00;98.40;;;3.76;61.72;94734.53;5012152;28;20453;-57
2023/01/31 08:16:25;;;;;;;11.83;8.07;;;4.00;98.40;;;3.84;61.64;94736.63;5014735;28;21055;-58
2023/01/31 08:18:53;;;;;;;11.17;7.70;;;4.10;98.30;;;3.97;62.27;94740.97;5011859;28;21178;-58
2023/01/31 08:21:22;;;;;;;11.17;7.73;;;4.20;98.50;;;4.12;61.79;94730.38;5011568;28;20488;-56
2023/01/31 08:23:50;;;;;;;9.37;7.00;;;4.30;98.40;;;4.25;61.10;94732.16;5012609;28;20462;-57
2023/01/31 08:26:18;;;;;;;12.00;8.70;;;4.50;98.00;;;4.42;61.11;94717.97;5014527;28;20500;-58
2023/01/31 08:28:46;;;;;;;12.90;8.37;;;4.60;97.90;;;4.61;60.92;94720.13;5011386;28;21009;-56
2023/01/31 08:31:14;;;;;;;12.77;8.00;;;4.80;97.80;;;4.83;60.41;94727.25;5016088;28;20533;-57
2023/01/31 08:33:41;;;;;;;10.57;6.80;;;5.00;97.50;;;5.03;60.20;94716.28;5015762;28;20450;-57
2023/01/31 08:36:11;;;;;;;10.37;6.83;;;5.20;97.30;;;5.19;59.43;94716.00;5015916;28;20473;-54
2023/01/31 08:38:39;;;;;;;13.30;7.13;;;5.40;96.80;;;5.29;59.27;94715.31;5017073;28;20473;-56
2023/01/31 08:41:07;;;;;;;7.87;6.37;;;5.50;96.50;;;5.39;58.81;94705.88;5016117;28;20485;-55
2023/01/31 08:43:36;;;;;;;9.57;6.03;;;5.60;96.30;;;5.45;58.39;94699.38;5014474;28;20484;-55
2023/01/31 08:46:04;;;;;;;9.50;6.90;;;5.70;95.70;;;5.55;58.56;94700.38;5016353;28;20639;-56
2023/01/31 08:48:33;;;;;;;7.37;5.80;;;5.80;96.00;;;5.74;58.27;94707.66;5018166;28;20456;-56
2023/01/31 08:51:02;;;;;;;7.30;6.50;;;5.90;95.80;;;5.97;58.10;94716.41;5014298;28;20481;-56
2023/01/31 08:53:29;;;;;;;11.03;5.83;;;6.10;95.70;;;6.15;57.29;94715.94;5015074;28;20552;-55
2023/01/31 08:56:00;;;;;;;8.03;6.17;;;6.30;95.20;;;6.36;57.01;94721.31;5018256;28;20485;-58
2023/01/31 08:58:27;;;;;;;10.73;7.17;;;6.50;95.30;;;6.77;56.88;94720.72;5016585;28;20453;-58
2023/01/31 09:00:55;;;;;;;6.70;5.67;;;6.80;95.00;;;7.34;56.81;94717.97;5017650;28;21086;-57
2023/01/31 09:03:22;;;;;;;8.50;5.80;;;7.30;95.10;;;8.06;54.98;94717.31;5016334;28;20481;-56
2023/01/31 09:05:49;;;;;;;9.47;6.40;;;7.90;94.30;;;8.71;54.08;94719.72;5016952;28;20535;-57
2023/01/31 09:08:17;;;;;;;13.07;6.23;;;8.50;93.70;;;9.02;52.30;94721.50;5015109;28;20492;-55
2023/01/31 09:10:51;;;;;;;12.27;5.97;;;8.90;91.80;;;9.07;51.88;94714.88;5017063;28;20479;-56
2023/01/31 09:13:20;;;;;;;14.47;5.67;;;9.10;91.00;;;9.32;51.77;94707.47;5011606;28;20515;-55
2023/01/31 09:15:47;;;;;;;10.53;6.70;;;9.30;90.40;;;9.64;50.67;94707.22;5018239;28;20484;-57
2023/01/31 09:18:15;;;;;;;11.87;5.47;;;9.60;89.80;;;9.77;49.45;94706.09;5014748;28;20492;-56
2023/01/31 09:20:42;;;;;;;7.40;5.93;;;9.80;85.70;;;9.99;49.32;94708.44;5018092;28;20496;-57
2023/01/31 09:23:09;;;;;;;5.90;5.30;;;10.00;85.00;;;10.40;49.26;94700.38;5014475;28;20465;-57
2023/01/31 09:25:37;;;;;;;7.50;3.93;;;10.30;84.40;;;10.82;48.99;94712.25;5014108;28;20480;-57
2023/01/31 09:28:04;;;;;;;5.53;5.00;;;10.60;83.80;;;10.89;47.34;94700.16;5020533;28;21082;-56
2023/01/31 09:30:33;;;;;;;6.00;4.77;;;10.80;79.30;;;10.81;48.30;94698.25;5019943;28;20483;-56
2023/01/31 09:33:01;;;;;;;4.73;4.17;;;10.80;80.40;;;10.68;48.03;94695.16;5017463;28;20453;-57
2023/01/31 09:35:28;;;;;;;4.90;4.20;;;10.70;78.80;;;10.65;47.03;94691.00;5020137;28;20939;-57
2023/01/31 09:37:55;;;;;;;4.60;4.20;;;10.70;76.40;;;10.64;48.19;94676.19;5021103;28;20460;-56
2023/01/31 09:40:31;;;;;;;8.40;4.80;;;10.70;78.50;;;10.78;47.17;94685.41;5019771;28;20484;-57
2023/01/31 09:43:00;;;;;;;5.07;4.47;;;10.80;77.20;;;11.13;46.89;94681.22;5016747;28;20452;-57
2023/01/31 09:45:31;;;;;;;4.97;4.47;;;11.00;76.60;;;11.46;46.96;94678.91;5018894;28;20771;-57
2023/01/31 09:48:01;;;;;;;4.10;3.80;;;11.30;76.10;;;11.81;45.19;94661.44;5022304;28;20481;-57
2023/01/31 09:50:33;;;;;;;4.37;3.97;;;11.60;73.10;;;12.01;44.64;94662.13;5018872;28;20469;-57
2023/01/31 09:53:00;;;;;;;3.67;3.40;;;11.80;71.50;;;12.10;45.03;94665.63;5021824;28;20977;-56
2023/01/31 09:55:35;;;;;;;3.50;3.20;;;12.00;71.60;;;12.05;43.84;94676.63;5018056;28;20473;-56
2023/01/31 09:58:06;;;;;;;3.93;3.33;;;11.90;69.50;;;11.88;44.42;94673.00;5019922;28;20456;-57
2023/01/31 10:00:47;;;;;;;4.50;4.10;;;11.90;69.10;;;11.65;44.51;94670.88;5019139;28;20462;-61
2023/01/31 10:03:32;;;;;;;5.83;3.50;;;11.70;69.50;;;11.49;45.09;94668.06;5015462;28;20989;-57
2023/01/31 10:06:04;;;;;;;3.37;3.10;;;11.60;70.90;;;11.50;44.98;94661.00;5016536;28;20473;-58
2023/01/31 10:08:41;;;;;;;9.77;3.30;;;11.50;70.80;;;11.60;44.77;94665.22;5018732;28;20484;-57
2023/01/31 10:11:12;;;;;;;3.57;3.27;;;11.50;70.40;;;12.01;44.39;94664.75;5018169;28;21022;-57
2023/01/31 10:13:41;;;;;;;4.87;4.20;;;11.80;69.40;;;12.36;44.65;94655.06;5018248;28;20844;-57
2023/01/31 10:16:15;;;;;;;3.10;2.90;;;12.10;70.20;;;12.45;43.72;94643.59;5013906;28;20587;-57
2023/01/31 10:18:45;;;;;;;3.43;3.13;;;12.30;68.40;;;12.61;43.15;94653.41;5015480;28;20453;-56
2023/01/31 10:21:15;;;;;;;4.47;3.10;;;12.40;66.50;;;12.86;43.28;94642.97;5016767;28;20492;-55
2023/01/31 10:23:45;;;;;;;3.17;2.90;;;12.60;67.50;;;12.80;42.77;94651.53;5018154;28;20538;-56
2023/01/31 10:26:16;;;;;;;4.50;2.90;;;12.60;65.10;;;12.43;42.00;94640.28;5020444;28;21038;-55
2023/01/31 10:28:47;;;;;;;3.27;2.97;;;12.50;62.70;;;12.12;43.00;94643.41;5016192;28;20477;-57
2023/01/31 10:31:25;;;;;;;3.90;3.37;;;12.20;64.10;;;11.98;43.89;94654.53;5019613;28;20469;-57
2023/01/31 10:33:56;;;;;;;3.80;3.13;;;12.10;65.80;;;11.82;43.93;94642.84;5011073;28;20452;-56
2023/01/31 10:36:27;;;;;;;5.67;4.53;;;11.90;65.40;;;11.49;44.38;94647.00;5019368;28;20477;-58